sensor_id;sensor_type;location;lat;lon;timestamp;pressure;altitude;pressure_sealevel;temperature;humidity
59391;BME280;53405;57.012;40.984;2023-02-28T00:01:55;100038.56;;;-8.83;81.68
59391;BME280;53405;57.012;40.984;2023-02-28T00:04:42;100026.59;;;-8.81;81.75
59391;BME280;53405;57.012;40.984;2023-02-28T00:07:30;100016.19;;;-9.00;81.70
59391;BME280;53405;57.012;40.984;2023-02-28T00:10:21;100018.50;;;-8.92;82.50
59391;BME280;53405;57.012;40.984;2023-02-28T00:13:10;100019.41;;;-8.95;82.73
59391;BME280;53405;57.012;40.984;2023-02-28T00:15:59;100005.56;;;-8.87;81.97
59391;BME280;53405;57.012;40.984;2023-02-28T00:18:48;99977.41;;;-9.10;81.88
59391;BME280;53405;57.012;40.984;2023-02-28T00:21:35;99998.50;;;-9.04;82.11
59391;BME280;53405;57.012;40.984;2023-02-28T00:24:23;99977.16;;;-9.03;82.18
59391;BME280;53405;57.012;40.984;2023-02-28T00:27:11;99994.94;;;-8.77;81.29
59391;BME280;53405;57.012;40.984;2023-02-28T00:29:58;99975.25;;;-8.97;81.58
59391;BME280;53405;57.012;40.984;2023-02-28T00:32:46;99973.78;;;-9.04;82.26
59391;BME280;53405;57.012;40.984;2023-02-28T00:35:34;99962.44;;;-8.95;81.94
59391;BME280;53405;57.012;40.984;2023-02-28T00:38:21;99950.63;;;-8.98;82.29
59391;BME280;53405;57.012;40.984;2023-02-28T00:41:09;99952.91;;;-8.90;81.39
59391;BME280;53405;57.012;40.984;2023-02-28T00:43:56;99943.94;;;-8.78;81.53
59391;BME280;53405;57.012;40.984;2023-02-28T00:46:44;99933.47;;;-8.94;81.58
59391;BME280;53405;57.012;40.984;2023-02-28T00:49:31;99936.28;;;-9.02;81.45
59391;BME280;53405;57.012;40.984;2023-02-28T00:52:19;99934.97;;;-8.88;81.51
59391;BME280;53405;57.012;40.984;2023-02-28T00:55:07;99918.47;;;-9.03;81.19
59391;BME280;53405;57.012;40.984;2023-02-28T00:57:55;99930.31;;;-9.01;81.61
59391;BME280;53405;57.012;40.984;2023-02-28T01:00:43;99909.94;;;-8.79;82.30
59391;BME280;53405;57.012;40.984;2023-02-28T01:03:31;99920.47;;;-8.88;81.58
59391;BME280;53405;57.012;40.984;2023-02-28T01:06:18;99929.16;;;-8.92;81.43
59391;BME280;53405;57.012;40.984;2023-02-28T01:09:07;99901.84;;;-8.90;81.76
59391;BME280;53405;57.012;40.984;2023-02-28T01:11:54;99887.50;;;-8.94;81.65
59391;BME280;53405;57.012;40.984;2023-02-28T01:14:42;99895.09;;;-8.69;81.32
59391;BME280;53405;57.012;40.984;2023-02-28T01:17:29;99881.28;;;-8.63;81.05
59391;BME280;53405;57.012;40.984;2023-02-28T01:20:20;99878.31;;;-8.75;81.55
59391;BME280;53405;57.012;40.984;2023-02-28T01:23:07;99881.19;;;-8.84;81.33
59391;BME280;53405;57.012;40.984;2023-02-28T01:25:55;99879.41;;;-8.82;81.66
59391;BME280;53405;57.012;40.984;2023-02-28T01:28:42;99870.22;;;-8.64;81.50
59391;BME280;53405;57.012;40.984;2023-02-28T01:31:30;99861.13;;;-8.71;81.27
59391;BME280;53405;57.012;40.984;2023-02-28T01:34:18;99856.66;;;-8.66;81.56
59391;BME280;53405;57.012;40.984;2023-02-28T01:37:06;99835.19;;;-8.82;81.57
59391;BME280;53405;57.012;40.984;2023-02-28T01:39:54;99827.69;;;-8.87;81.65
59391;BME280;53405;57.012;40.984;2023-02-28T01:42:41;99828.94;;;-8.75;81.82
59391;BME280;53405;57.012;40.984;2023-02-28T01:45:30;99831.31;;;-8.70;81.87
59391;BME280;53405;57.012;40.984;2023-02-28T01:48:19;99833.22;;;-8.76;81.60
59391;BME280;53405;57.012;40.984;2023-02-28T01:51:13;99824.38;;;-8.67;82.80
59391;BME280;53405;57.012;40.984;2023-02-28T01:54:09;99826.22;;;-8.70;81.73
59391;BME280;53405;57.012;40.984;2023-02-28T01:57:07;99813.38;;;-8.69;81.49
59391;BME280;53405;57.012;40.984;2023-02-28T01:59:59;99809.72;;;-8.62;81.36
59391;BME280;53405;57.012;40.984;2023-02-28T02:03:05;99809.66;;;-8.60;81.14
59391;BME280;53405;57.012;40.984;2023-02-28T02:05:55;99765.25;;;-8.58;81.24
59391;BME280;53405;57.012;40.984;2023-02-28T02:08:43;99778.75;;;-8.54;80.89
59391;BME280;53405;57.012;40.984;2023-02-28T02:11:30;99787.06;;;-8.49;80.63
59391;BME280;53405;57.012;40.984;2023-02-28T02:17:53;99762.34;;;-8.48;80.10
59391;BME280;53405;57.012;40.984;2023-02-28T02:27:20;99726.66;;;-8.50;79.56
59391;BME280;53405;57.012;40.984;2023-02-28T02:30:28;99729.38;;;-8.55;79.95
59391;BME280;53405;57.012;40.984;2023-02-28T02:42:41;99695.16;;;-8.50;79.21
59391;BME280;53405;57.012;40.984;2023-02-28T02:45:43;99686.38;;;-8.43;78.85
59391;BME280;53405;57.012;40.984;2023-02-28T02:48:35;99687.31;;;-8.46;78.90
59391;BME280;53405;57.012;40.984;2023-02-28T02:51:26;99679.91;;;-8.12;77.64
59391;BME280;53405;57.012;40.984;2023-02-28T02:54:28;99671.50;;;-8.35;78.23
59391;BME280;53405;57.012;40.984;2023-02-28T02:57:23;99675.44;;;-8.28;77.64
59391;BME280;53405;57.012;40.984;2023-02-28T03:00:16;99666.44;;;-8.16;78.31
59391;BME280;53405;57.012;40.984;2023-02-28T03:03:08;99658.84;;;-8.18;76.81
59391;BME280;53405;57.012;40.984;2023-02-28T03:05:59;99656.59;;;-8.25;77.05
59391;BME280;53405;57.012;40.984;2023-02-28T03:08:47;99667.75;;;-8.07;76.45
59391;BME280;53405;57.012;40.984;2023-02-28T03:11:36;99647.78;;;-8.18;76.35
59391;BME280;53405;57.012;40.984;2023-02-28T03:14:26;99657.44;;;-8.06;76.62
59391;BME280;53405;57.012;40.984;2023-02-28T03:31:03;99573.81;;;-8.21;76.01
59391;BME280;53405;57.012;40.984;2023-02-28T03:34:07;99558.56;;;-8.23;76.13
59391;BME280;53405;57.012;40.984;2023-02-28T03:37:00;99577.59;;;-8.30;76.33
59391;BME280;53405;57.012;40.984;2023-02-28T03:39:54;99563.03;;;-8.28;76.72
59391;BME280;53405;57.012;40.984;2023-02-28T03:42:47;99567.13;;;-8.24;76.33
59391;BME280;53405;57.012;40.984;2023-02-28T03:45:36;99539.22;;;-8.28;75.74
59391;BME280;53405;57.012;40.984;2023-02-28T03:51:19;99534.16;;;-8.11;76.24
59391;BME280;53405;57.012;40.984;2023-02-28T03:54:19;99541.53;;;-8.05;76.94
59391;BME280;53405;57.012;40.984;2023-02-28T03:57:23;99528.66;;;-8.21;75.35
59391;BME280;53405;57.012;40.984;2023-02-28T04:00:30;99518.41;;;-8.02;75.14
59391;BME280;53405;57.012;40.984;2023-02-28T04:03:18;99510.16;;;-8.26;76.02
59391;BME280;53405;57.012;40.984;2023-02-28T04:06:08;99495.69;;;-8.08;75.38
59391;BME280;53405;57.012;40.984;2023-02-28T04:09:01;99474.84;;;-8.18;75.28
59391;BME280;53405;57.012;40.984;2023-02-28T04:11:52;99458.38;;;-8.12;75.26
59391;BME280;53405;57.012;40.984;2023-02-28T04:14:40;99451.09;;;-8.20;75.69
59391;BME280;53405;57.012;40.984;2023-02-28T04:17:27;99452.31;;;-8.09;75.23
59391;BME280;53405;57.012;40.984;2023-02-28T04:20:15;99426.84;;;-7.93;75.00
59391;BME280;53405;57.012;40.984;2023-02-28T04:23:02;99428.34;;;-7.89;74.10
59391;BME280;53405;57.012;40.984;2023-02-28T04:25:50;99397.75;;;-8.08;74.79
59391;BME280;53405;57.012;40.984;2023-02-28T04:28:38;99405.19;;;-7.86;73.76
59391;BME280;53405;57.012;40.984;2023-02-28T04:31:26;99397.44;;;-7.67;74.41
59391;BME280;53405;57.012;40.984;2023-02-28T04:34:15;99391.19;;;-7.62;74.36
59391;BME280;53405;57.012;40.984;2023-02-28T04:37:03;99401.94;;;-7.55;73.58
59391;BME280;53405;57.012;40.984;2023-02-28T04:40:00;99385.09;;;-7.59;73.53
59391;BME280;53405;57.012;40.984;2023-02-28T04:42:49;99396.84;;;-7.55;74.16
59391;BME280;53405;57.012;40.984;2023-02-28T04:45:36;99396.09;;;-7.41;72.76
59391;BME280;53405;57.012;40.984;2023-02-28T04:48:25;99378.50;;;-7.30;72.61
59391;BME280;53405;57.012;40.984;2023-02-28T04:51:16;99365.09;;;-7.35;72.33
59391;BME280;53405;57.012;40.984;2023-02-28T04:54:18;99374.13;;;-7.28;72.02
59391;BME280;53405;57.012;40.984;2023-02-28T04:57:10;99387.16;;;-7.16;71.59
59391;BME280;53405;57.012;40.984;2023-02-28T04:59:57;99363.47;;;-7.20;71.74
59391;BME280;53405;57.012;40.984;2023-02-28T05:02:45;99339.44;;;-7.17;72.12
59391;BME280;53405;57.012;40.984;2023-02-28T05:05:32;99340.63;;;-7.07;72.67
59391;BME280;53405;57.012;40.984;2023-02-28T05:08:19;99322.84;;;-6.78;72.48
59391;BME280;53405;57.012;40.984;2023-02-28T05:14:14;99314.84;;;-6.88;71.70
59391;BME280;53405;57.012;40.984;2023-02-28T05:17:02;99313.63;;;-6.81;71.06
59391;BME280;53405;57.012;40.984;2023-02-28T05:19:51;99306.69;;;-6.95;71.53
59391;BME280;53405;57.012;40.984;2023-02-28T05:22:39;99351.94;;;-6.63;71.41
59391;BME280;53405;57.012;40.984;2023-02-28T05:25:27;99333.59;;;-6.72;70.51
59391;BME280;53405;57.012;40.984;2023-02-28T05:28:14;99349.72;;;-6.85;71.19
59391;BME280;53405;57.012;40.984;2023-02-28T05:31:01;99321.81;;;-6.90;71.35
59391;BME280;53405;57.012;40.984;2023-02-28T05:33:49;99315.75;;;-6.89;71.58
59391;BME280;53405;57.012;40.984;2023-02-28T05:36:37;99296.25;;;-6.76;72.88
59391;BME280;53405;57.012;40.984;2023-02-28T05:39:25;99292.72;;;-6.73;71.37
59391;BME280;53405;57.012;40.984;2023-02-28T05:42:12;99258.09;;;-6.80;72.06
59391;BME280;53405;57.012;40.984;2023-02-28T05:45:00;99281.25;;;-6.51;71.41
59391;BME280;53405;57.012;40.984;2023-02-28T05:47:53;99270.09;;;-6.50;71.85
59391;BME280;53405;57.012;40.984;2023-02-28T05:50:41;99278.59;;;-6.50;71.14
59391;BME280;53405;57.012;40.984;2023-02-28T05:53:30;99290.81;;;-6.39;70.37
59391;BME280;53405;57.012;40.984;2023-02-28T05:56:17;99277.00;;;-6.37;71.06
59391;BME280;53405;57.012;40.984;2023-02-28T05:59:06;99270.38;;;-6.41;70.01
59391;BME280;53405;57.012;40.984;2023-02-28T06:01:53;99230.38;;;-6.43;70.96
59391;BME280;53405;57.012;40.984;2023-02-28T06:04:42;99244.50;;;-6.36;70.01
59391;BME280;53405;57.012;40.984;2023-02-28T06:07:30;99258.34;;;-6.24;71.94
59391;BME280;53405;57.012;40.984;2023-02-28T06:10:17;99277.22;;;-6.11;70.46
59391;BME280;53405;57.012;40.984;2023-02-28T06:13:05;99273.53;;;-6.21;70.64
59391;BME280;53405;57.012;40.984;2023-02-28T06:15:52;99289.44;;;-6.00;70.07
59391;BME280;53405;57.012;40.984;2023-02-28T06:18:40;99279.00;;;-5.97;71.31
59391;BME280;53405;57.012;40.984;2023-02-28T06:21:28;99264.66;;;-5.72;69.47
59391;BME280;53405;57.012;40.984;2023-02-28T06:24:17;99267.69;;;-5.51;69.68
59391;BME280;53405;57.012;40.984;2023-02-28T06:27:04;99259.63;;;-5.59;71.11
59391;BME280;53405;57.012;40.984;2023-02-28T06:29:56;99261.75;;;-5.52;68.70
59391;BME280;53405;57.012;40.984;2023-02-28T06:32:49;99225.75;;;-5.93;70.97
59391;BME280;53405;57.012;40.984;2023-02-28T06:35:36;99250.38;;;-5.91;69.44
59391;BME280;53405;57.012;40.984;2023-02-28T06:38:25;99243.69;;;-5.93;70.04
59391;BME280;53405;57.012;40.984;2023-02-28T06:41:12;99220.38;;;-6.03;70.20
59391;BME280;53405;57.012;40.984;2023-02-28T06:44:00;99235.66;;;-6.16;70.53
59391;BME280;53405;57.012;40.984;2023-02-28T06:46:47;99220.38;;;-6.03;71.17
59391;BME280;53405;57.012;40.984;2023-02-28T06:49:35;99217.16;;;-5.92;70.72
59391;BME280;53405;57.012;40.984;2023-02-28T06:52:23;99227.75;;;-5.84;71.56
59391;BME280;53405;57.012;40.984;2023-02-28T06:55:11;99222.66;;;-5.98;70.70
59391;BME280;53405;57.012;40.984;2023-02-28T06:57:58;99230.28;;;-5.97;71.81
59391;BME280;53405;57.012;40.984;2023-02-28T07:00:53;99233.81;;;-6.00;71.21
59391;BME280;53405;57.012;40.984;2023-02-28T07:03:40;99229.81;;;-6.04;71.49
59391;BME280;53405;57.012;40.984;2023-02-28T07:06:28;99212.47;;;-5.86;71.73
59391;BME280;53405;57.012;40.984;2023-02-28T07:09:15;99204.50;;;-5.81;71.92
59391;BME280;53405;57.012;40.984;2023-02-28T07:12:03;99206.97;;;-5.79;71.88
59391;BME280;53405;57.012;40.984;2023-02-28T07:14:51;99202.38;;;-5.74;71.69
59391;BME280;53405;57.012;40.984;2023-02-28T07:17:38;99209.69;;;-5.68;72.88
59391;BME280;53405;57.012;40.984;2023-02-28T07:20:26;99184.09;;;-5.55;75.25
59391;BME280;53405;57.012;40.984;2023-02-28T07:23:13;99191.47;;;-5.64;72.06
59391;BME280;53405;57.012;40.984;2023-02-28T07:26:01;99175.97;;;-5.62;73.18
59391;BME280;53405;57.012;40.984;2023-02-28T07:28:48;99181.88;;;-5.47;73.53
59391;BME280;53405;57.012;40.984;2023-02-28T07:31:36;99184.25;;;-5.44;74.19
59391;BME280;53405;57.012;40.984;2023-02-28T07:34:23;99186.22;;;-5.62;74.29
59391;BME280;53405;57.012;40.984;2023-02-28T07:37:13;99181.53;;;-5.55;75.92
59391;BME280;53405;57.012;40.984;2023-02-28T07:40:00;99156.25;;;-5.62;76.00
59391;BME280;53405;57.012;40.984;2023-02-28T07:42:49;99158.81;;;-5.62;76.69
59391;BME280;53405;57.012;40.984;2023-02-28T07:45:37;99158.25;;;-5.52;77.09
59391;BME280;53405;57.012;40.984;2023-02-28T07:48:24;99142.97;;;-5.54;77.29
59391;BME280;53405;57.012;40.984;2023-02-28T07:51:12;99142.72;;;-5.36;78.25
59391;BME280;53405;57.012;40.984;2023-02-28T07:54:00;99140.72;;;-5.46;78.24
59391;BME280;53405;57.012;40.984;2023-02-28T07:56:47;99136.06;;;-5.39;79.81
59391;BME280;53405;57.012;40.984;2023-02-28T07:59:35;99119.03;;;-5.27;78.34
59391;BME280;53405;57.012;40.984;2023-02-28T08:02:22;99132.84;;;-5.15;78.16
59391;BME280;53405;57.012;40.984;2023-02-28T08:05:10;99127.00;;;-5.04;77.67
59391;BME280;53405;57.012;40.984;2023-02-28T08:07:57;99118.97;;;-5.00;77.82
59391;BME280;53405;57.012;40.984;2023-02-28T08:10:45;99119.75;;;-4.85;78.23
59391;BME280;53405;57.012;40.984;2023-02-28T08:13:33;99116.25;;;-4.58;76.56
59391;BME280;53405;57.012;40.984;2023-02-28T08:16:21;99090.56;;;-4.84;76.58
59391;BME280;53405;57.012;40.984;2023-02-28T08:19:09;99101.34;;;-4.79;76.71
59391;BME280;53405;57.012;40.984;2023-02-28T08:21:57;99107.72;;;-4.84;76.98
59391;BME280;53405;57.012;40.984;2023-02-28T08:24:45;99113.50;;;-4.68;77.49
59391;BME280;53405;57.012;40.984;2023-02-28T08:27:32;99105.38;;;-4.62;77.42
59391;BME280;53405;57.012;40.984;2023-02-28T08:30:20;99097.94;;;-4.28;75.76
59391;BME280;53405;57.012;40.984;2023-02-28T08:33:07;99066.19;;;-4.40;76.27
59391;BME280;53405;57.012;40.984;2023-02-28T08:35:56;99078.81;;;-4.24;76.30
59391;BME280;53405;57.012;40.984;2023-02-28T08:38:44;99079.34;;;-4.31;75.13
59391;BME280;53405;57.012;40.984;2023-02-28T08:41:32;99056.97;;;-4.68;75.07
59391;BME280;53405;57.012;40.984;2023-02-28T08:44:19;99080.09;;;-4.68;75.71
59391;BME280;53405;57.012;40.984;2023-02-28T08:47:07;99057.06;;;-4.69;76.16
59391;BME280;53405;57.012;40.984;2023-02-28T08:49:54;99079.38;;;-4.57;76.22
59391;BME280;53405;57.012;40.984;2023-02-28T08:52:42;99085.13;;;-4.54;77.55
59391;BME280;53405;57.012;40.984;2023-02-28T08:55:30;99083.81;;;-4.09;76.54
59391;BME280;53405;57.012;40.984;2023-02-28T08:58:18;99073.59;;;-3.98;74.26
59391;BME280;53405;57.012;40.984;2023-02-28T09:01:14;99067.53;;;-3.97;74.64
59391;BME280;53405;57.012;40.984;2023-02-28T09:04:03;99077.34;;;-3.78;75.22
59391;BME280;53405;57.012;40.984;2023-02-28T09:06:51;99072.84;;;-3.87;74.21
59391;BME280;53405;57.012;40.984;2023-02-28T09:09:38;99064.97;;;-3.97;73.92
59391;BME280;53405;57.012;40.984;2023-02-28T09:12:41;99066.09;;;-4.01;75.68
59391;BME280;53405;57.012;40.984;2023-02-28T09:15:28;99052.84;;;-3.84;73.52
59391;BME280;53405;57.012;40.984;2023-02-28T09:18:16;99045.84;;;-4.06;74.25
59391;BME280;53405;57.012;40.984;2023-02-28T09:21:05;99033.34;;;-3.99;74.83
59391;BME280;53405;57.012;40.984;2023-02-28T09:23:53;99048.72;;;-3.73;75.18
59391;BME280;53405;57.012;40.984;2023-02-28T09:26:41;99057.31;;;-3.86;73.98
59391;BME280;53405;57.012;40.984;2023-02-28T09:29:41;99042.63;;;-3.96;74.27
59391;BME280;53405;57.012;40.984;2023-02-28T09:32:29;99031.00;;;-4.02;74.39
59391;BME280;53405;57.012;40.984;2023-02-28T09:35:21;99047.94;;;-3.87;74.71
59391;BME280;53405;57.012;40.984;2023-02-28T09:38:10;99048.66;;;-3.85;73.77
59391;BME280;53405;57.012;40.984;2023-02-28T09:41:03;99016.09;;;-3.97;74.82
59391;BME280;53405;57.012;40.984;2023-02-28T09:43:56;99030.03;;;-3.64;74.16
59391;BME280;53405;57.012;40.984;2023-02-28T09:46:48;99031.72;;;-3.76;73.67
59391;BME280;53405;57.012;40.984;2023-02-28T09:49:46;99019.00;;;-3.66;75.01
59391;BME280;53405;57.012;40.984;2023-02-28T09:52:34;99022.38;;;-3.41;75.50
59391;BME280;53405;57.012;40.984;2023-02-28T09:58:22;99000.31;;;-3.68;75.69
59391;BME280;53405;57.012;40.984;2023-02-28T10:13:39;98986.94;;;-3.73;76.50
59391;BME280;53405;57.012;40.984;2023-02-28T10:16:43;98997.53;;;-3.54;75.56
59391;BME280;53405;57.012;40.984;2023-02-28T10:23:20;98982.34;;;-3.46;75.78
59391;BME280;53405;57.012;40.984;2023-02-28T10:26:12;98979.22;;;-3.27;75.86
59391;BME280;53405;57.012;40.984;2023-02-28T10:29:00;98996.78;;;-3.20;75.36
59391;BME280;53405;57.012;40.984;2023-02-28T10:31:50;98997.69;;;-3.44;76.07
59391;BME280;53405;57.012;40.984;2023-02-28T10:34:37;98992.31;;;-3.30;76.78
59391;BME280;53405;57.012;40.984;2023-02-28T10:37:25;98995.97;;;-3.32;76.41
59391;BME280;53405;57.012;40.984;2023-02-28T10:46:11;98980.31;;;-2.95;75.91
59391;BME280;53405;57.012;40.984;2023-02-28T10:49:11;98974.16;;;-3.39;75.65
59391;BME280;53405;57.012;40.984;2023-02-28T10:52:00;98979.59;;;-3.20;76.11
59391;BME280;53405;57.012;40.984;2023-02-28T10:54:48;98975.59;;;-3.24;77.00
59391;BME280;53405;57.012;40.984;2023-02-28T10:57:36;98975.56;;;-3.47;78.29
59391;BME280;53405;57.012;40.984;2023-02-28T11:00:25;98945.03;;;-3.40;79.33
59391;BME280;53405;57.012;40.984;2023-02-28T11:06:33;98944.22;;;-3.40;80.62
59391;BME280;53405;57.012;40.984;2023-02-28T11:09:33;98946.53;;;-3.49;81.33
59391;BME280;53405;57.012;40.984;2023-02-28T11:12:31;98941.47;;;-3.61;80.93
59391;BME280;53405;57.012;40.984;2023-02-28T11:15:30;98943.00;;;-3.70;81.13
59391;BME280;53405;57.012;40.984;2023-02-28T11:18:30;98929.03;;;-3.79;81.55
59391;BME280;53405;57.012;40.984;2023-02-28T11:21:31;98925.66;;;-3.68;80.95
59391;BME280;53405;57.012;40.984;2023-02-28T11:24:33;98935.66;;;-3.52;80.57
59391;BME280;53405;57.012;40.984;2023-02-28T11:27:47;98917.28;;;-3.59;80.35
59391;BME280;53405;57.012;40.984;2023-02-28T11:30:36;98896.66;;;-3.70;81.43
59391;BME280;53405;57.012;40.984;2023-02-28T11:33:40;98895.03;;;-3.49;81.46
59391;BME280;53405;57.012;40.984;2023-02-28T11:36:31;98909.78;;;-3.51;80.97
59391;BME280;53405;57.012;40.984;2023-02-28T11:39:24;98900.41;;;-3.52;83.46
59391;BME280;53405;57.012;40.984;2023-02-28T11:45:41;98903.09;;;-3.53;83.82
59391;BME280;53405;57.012;40.984;2023-02-28T11:51:40;98892.56;;;-3.61;84.34
59391;BME280;53405;57.012;40.984;2023-02-28T11:58:00;98902.53;;;-3.46;84.05
59391;BME280;53405;57.012;40.984;2023-02-28T12:01:13;98886.63;;;-3.62;84.26
59391;BME280;53405;57.012;40.984;2023-02-28T12:07:43;98879.38;;;-3.34;84.67
59391;BME280;53405;57.012;40.984;2023-02-28T12:11:05;98896.22;;;-3.53;84.56
59391;BME280;53405;57.012;40.984;2023-02-28T12:21:08;98859.63;;;-3.45;85.96
59391;BME280;53405;57.012;40.984;2023-02-28T12:27:09;98870.72;;;-3.45;86.71
59391;BME280;53405;57.012;40.984;2023-02-28T12:30:22;98879.88;;;-3.40;87.02
59391;BME280;53405;57.012;40.984;2023-02-28T12:33:17;98887.81;;;-3.32;86.65
59391;BME280;53405;57.012;40.984;2023-02-28T12:36:11;98869.91;;;-3.45;85.67
59391;BME280;53405;57.012;40.984;2023-02-28T12:39:14;98861.56;;;-3.49;86.65
59391;BME280;53405;57.012;40.984;2023-02-28T12:42:09;98860.06;;;-3.29;85.77
59391;BME280;53405;57.012;40.984;2023-02-28T12:45:03;98861.00;;;-2.96;84.41
59391;BME280;53405;57.012;40.984;2023-02-28T12:48:04;98846.94;;;-2.92;83.79
59391;BME280;53405;57.012;40.984;2023-02-28T12:50:53;98853.47;;;-2.87;82.62
59391;BME280;53405;57.012;40.984;2023-02-28T12:59:45;98847.63;;;-2.89;82.51
59391;BME280;53405;57.012;40.984;2023-02-28T13:09:14;98838.81;;;-2.87;83.73
59391;BME280;53405;57.012;40.984;2023-02-28T13:12:12;98842.19;;;-2.64;83.84
59391;BME280;53405;57.012;40.984;2023-02-28T13:15:16;98841.84;;;-2.70;81.54
59391;BME280;53405;57.012;40.984;2023-02-28T13:18:28;98834.63;;;-2.88;83.42
59391;BME280;53405;57.012;40.984;2023-02-28T13:21:24;98838.94;;;-2.77;83.33
59391;BME280;53405;57.012;40.984;2023-02-28T13:27:38;98826.66;;;-2.52;81.16
59391;BME280;53405;57.012;40.984;2023-02-28T13:36:35;98811.38;;;-2.65;82.02
59391;BME280;53405;57.012;40.984;2023-02-28T13:45:28;98819.16;;;-2.44;80.99
59391;BME280;53405;57.012;40.984;2023-02-28T13:48:28;98812.31;;;-2.34;81.15
59391;BME280;53405;57.012;40.984;2023-02-28T13:51:46;98817.03;;;-2.39;81.00
59391;BME280;53405;57.012;40.984;2023-02-28T14:06:53;98797.06;;;-2.37;82.13
59391;BME280;53405;57.012;40.984;2023-02-28T14:09:46;98791.53;;;-2.53;82.60
59391;BME280;53405;57.012;40.984;2023-02-28T14:12:57;98797.00;;;-2.47;83.63
59391;BME280;53405;57.012;40.984;2023-02-28T14:15:55;98782.28;;;-2.35;83.75
59391;BME280;53405;57.012;40.984;2023-02-28T14:19:02;98791.78;;;-2.14;83.20
59391;BME280;53405;57.012;40.984;2023-02-28T14:31:36;98781.59;;;-2.37;87.02
59391;BME280;53405;57.012;40.984;2023-02-28T14:34:41;98797.84;;;-2.25;86.08
59391;BME280;53405;57.012;40.984;2023-02-28T14:37:36;98791.66;;;-2.34;85.81
59391;BME280;53405;57.012;40.984;2023-02-28T14:40:33;98802.91;;;-2.56;85.44
59391;BME280;53405;57.012;40.984;2023-02-28T14:43:25;98805.03;;;-2.61;86.59
59391;BME280;53405;57.012;40.984;2023-02-28T14:46:13;98800.81;;;-2.30;86.10
59391;BME280;53405;57.012;40.984;2023-02-28T14:49:01;98798.78;;;-2.26;85.09
59391;BME280;53405;57.012;40.984;2023-02-28T14:52:20;98783.56;;;-2.29;84.27
59391;BME280;53405;57.012;40.984;2023-02-28T14:55:15;98785.13;;;-2.38;85.00
59391;BME280;53405;57.012;40.984;2023-02-28T14:58:05;98792.94;;;-2.07;84.43
59391;BME280;53405;57.012;40.984;2023-02-28T15:00:59;98786.38;;;-2.11;84.15
59391;BME280;53405;57.012;40.984;2023-02-28T15:03:47;98781.91;;;-2.30;83.63
59391;BME280;53405;57.012;40.984;2023-02-28T15:06:35;98785.16;;;-2.17;83.42
59391;BME280;53405;57.012;40.984;2023-02-28T15:09:23;98784.06;;;-2.14;82.38
59391;BME280;53405;57.012;40.984;2023-02-28T15:12:14;98777.34;;;-2.27;84.38
59391;BME280;53405;57.012;40.984;2023-02-28T15:15:02;98771.94;;;-2.24;83.46
59391;BME280;53405;57.012;40.984;2023-02-28T15:17:52;98793.06;;;-2.09;83.33
59391;BME280;53405;57.012;40.984;2023-02-28T15:20:44;98795.97;;;-2.23;84.06
59391;BME280;53405;57.012;40.984;2023-02-28T15:23:37;98790.47;;;-2.09;83.37
59391;BME280;53405;57.012;40.984;2023-02-28T15:26:34;98794.06;;;-2.21;83.95
59391;BME280;53405;57.012;40.984;2023-02-28T15:29:25;98790.00;;;-2.24;83.70
59391;BME280;53405;57.012;40.984;2023-02-28T15:32:36;98798.59;;;-2.13;83.91
59391;BME280;53405;57.012;40.984;2023-02-28T15:38:26;98808.84;;;-2.23;82.76
59391;BME280;53405;57.012;40.984;2023-02-28T15:41:35;98800.63;;;-2.17;82.92
59391;BME280;53405;57.012;40.984;2023-02-28T15:44:26;98803.31;;;-2.19;82.96
59391;BME280;53405;57.012;40.984;2023-02-28T15:47:25;98803.19;;;-2.17;82.65
59391;BME280;53405;57.012;40.984;2023-02-28T15:50:16;98805.34;;;-2.01;81.79
59391;BME280;53405;57.012;40.984;2023-02-28T15:53:12;98802.75;;;-2.01;82.98
59391;BME280;53405;57.012;40.984;2023-02-28T15:56:21;98784.69;;;-2.01;83.17
59391;BME280;53405;57.012;40.984;2023-02-28T15:59:16;98779.19;;;-1.87;80.55
59391;BME280;53405;57.012;40.984;2023-02-28T16:02:15;98801.22;;;-2.04;81.30
59391;BME280;53405;57.012;40.984;2023-02-28T16:07:56;98791.69;;;-1.92;81.03
59391;BME280;53405;57.012;40.984;2023-02-28T16:10:44;98787.72;;;-1.96;80.94
59391;BME280;53405;57.012;40.984;2023-02-28T16:13:32;98796.91;;;-2.03;81.84
59391;BME280;53405;57.012;40.984;2023-02-28T16:16:23;98805.00;;;-1.87;82.37
59391;BME280;53405;57.012;40.984;2023-02-28T16:19:12;98794.94;;;-1.90;80.53
59391;BME280;53405;57.012;40.984;2023-02-28T16:22:00;98797.91;;;-1.94;82.23
59391;BME280;53405;57.012;40.984;2023-02-28T16:24:48;98797.84;;;-2.04;82.55
59391;BME280;53405;57.012;40.984;2023-02-28T16:27:36;98793.81;;;-1.97;83.01
59391;BME280;53405;57.012;40.984;2023-02-28T16:30:26;98798.16;;;-1.76;81.90
59391;BME280;53405;57.012;40.984;2023-02-28T16:33:14;98795.25;;;-1.83;82.49
59391;BME280;53405;57.012;40.984;2023-02-28T16:36:02;98805.56;;;-1.83;81.82
59391;BME280;53405;57.012;40.984;2023-02-28T16:38:50;98802.94;;;-1.93;82.26
59391;BME280;53405;57.012;40.984;2023-02-28T16:41:44;98799.53;;;-1.93;83.10
59391;BME280;53405;57.012;40.984;2023-02-28T16:44:36;98780.66;;;-2.15;81.66
59391;BME280;53405;57.012;40.984;2023-02-28T16:47:24;98797.03;;;-2.05;80.76
59391;BME280;53405;57.012;40.984;2023-02-28T16:50:19;98809.22;;;-2.07;80.82
59391;BME280;53405;57.012;40.984;2023-02-28T16:53:07;98813.06;;;-2.01;81.73
59391;BME280;53405;57.012;40.984;2023-02-28T16:55:55;98816.72;;;-2.04;80.48
59391;BME280;53405;57.012;40.984;2023-02-28T16:58:43;98796.56;;;-2.10;80.05
59391;BME280;53405;57.012;40.984;2023-02-28T17:01:30;98807.09;;;-2.02;79.59
59391;BME280;53405;57.012;40.984;2023-02-28T17:04:19;98816.47;;;-2.01;78.96
59391;BME280;53405;57.012;40.984;2023-02-28T17:07:11;98812.16;;;-2.00;77.62
59391;BME280;53405;57.012;40.984;2023-02-28T17:09:59;98807.66;;;-1.98;75.86
59391;BME280;53405;57.012;40.984;2023-02-28T17:12:55;98799.34;;;-2.23;75.56
59391;BME280;53405;57.012;40.984;2023-02-28T17:15:52;98810.50;;;-2.22;76.83
59391;BME280;53405;57.012;40.984;2023-02-28T17:18:40;98807.94;;;-2.22;76.89
59391;BME280;53405;57.012;40.984;2023-02-28T17:21:28;98813.66;;;-2.19;73.95
59391;BME280;53405;57.012;40.984;2023-02-28T17:24:16;98796.28;;;-2.38;74.49